Time;durP1;ratioP1;P1;durP2;ratioP2;P2;SDS_P1;SDS_P2;PMS_P1;PMS_P2;Temp;Humidity;BMP_temperature;BMP_pressure;BME280_temperature;BME280_humidity;BME280_pressure;Samples;Min_cycle;Max_cycle;Signal;HPM_P1;HPM_P2
2023/03/13 00:00:17;;;;;;;11.30;3.80;;;;;;;11.46;54.40;96998.16;5047402;28;20214;-70
2023/03/13 00:02:46;;;;;;;9.27;3.87;;;;;;;11.45;54.31;96993.06;5047183;28;20180;-68
2023/03/13 00:05:12;;;;;;;8.80;4.00;;;;;;;11.45;54.68;96988.63;5051439;28;20478;-69
2023/03/13 00:07:37;;;;;;;10.30;4.00;;;;;;;11.43;54.71;96984.50;5021647;28;20566;-69
2023/03/13 00:10:03;;;;;;;14.60;4.47;;;;;;;11.43;54.50;96989.75;5039434;28;20504;-70
2023/03/13 00:12:29;;;;;;;13.30;4.10;;;;;;;11.42;54.48;96986.34;5058802;28;20265;-68
2023/03/13 00:14:54;;;;;;;9.90;3.90;;;;;;;11.40;54.57;96980.41;5062299;28;20610;-68
2023/03/13 00:17:20;;;;;;;7.23;4.03;;;;;;;11.42;54.58;96986.34;5049937;28;20274;-69
2023/03/13 00:19:45;;;;;;;12.97;4.83;;;;;;;11.42;54.61;96988.97;5060756;28;20666;-67
2023/03/13 00:22:10;;;;;;;13.33;4.73;;;;;;;11.43;54.57;96992.38;5043669;28;20289;-68
2023/03/13 00:24:36;;;;;;;13.00;4.90;;;;;;;11.35;54.49;96986.16;5050296;28;20270;-69
2023/03/13 00:27:03;;;;;;;9.80;4.80;;;;;;;11.36;54.82;96998.28;5059775;28;20264;-68
2023/03/13 00:29:29;;;;;;;18.90;5.20;;;;;;;11.34;54.89;96988.97;5056751;28;20187;-68
2023/03/13 00:31:55;;;;;;;9.53;4.80;;;;;;;11.31;54.51;96987.47;5032241;28;20426;-69
2023/03/13 00:34:21;;;;;;;14.40;5.73;;;;;;;11.37;54.89;96980.75;5057794;28;20470;-68
2023/03/13 00:36:47;;;;;;;16.23;5.17;;;;;;;11.32;55.15;96977.81;5050155;28;20206;-69
2023/03/13 00:39:12;;;;;;;12.30;5.27;;;;;;;11.29;55.15;96975.50;5045281;28;20414;-68
2023/03/13 00:41:38;;;;;;;12.87;5.10;;;;;;;11.32;54.92;96972.56;5057012;28;20571;-69
2023/03/13 00:44:03;;;;;;;12.80;5.70;;;;;;;11.37;55.17;96970.25;5062467;28;20268;-69
2023/03/13 00:46:29;;;;;;;16.43;5.30;;;;;;;11.41;55.02;96970.72;5056435;28;20214;-69
2023/03/13 00:48:55;;;;;;;12.70;4.30;;;;;;;11.43;55.01;96964.34;5050193;28;20258;-68
2023/03/13 00:51:22;;;;;;;9.67;4.60;;;;;;;11.46;54.77;96963.19;5048447;28;20422;-69
2023/03/13 00:53:48;;;;;;;14.80;4.70;;;;;;;11.34;55.73;96957.47;5051148;28;20825;-69
2023/03/13 00:56:15;;;;;;;12.27;4.50;;;;;;;11.26;55.53;96960.91;5054618;28;20490;-69
2023/03/13 00:58:42;;;;;;;14.30;5.10;;;;;;;11.27;55.53;96953.84;5061762;28;20554;-69
2023/03/13 01:01:16;;;;;;;11.50;4.90;;;;;;;11.29;55.92;96952.69;5060800;28;20531;-69
2023/03/13 01:03:44;;;;;;;12.60;4.70;;;;;;;11.34;55.38;96941.72;5059491;28;20422;-69
2023/03/13 01:06:12;;;;;;;23.27;5.60;;;;;;;11.43;55.04;96940.75;5052149;28;20455;-69
2023/03/13 01:08:38;;;;;;;14.43;4.70;;;;;;;11.47;54.87;96939.41;5049810;28;20413;-69
2023/03/13 01:11:06;;;;;;;11.77;4.73;;;;;;;11.48;54.69;96927.94;5046697;28;20440;-69
2023/03/13 01:13:32;;;;;;;8.63;4.50;;;;;;;11.50;54.63;96928.59;5059934;28;20265;-69
2023/03/13 01:16:05;;;;;;;13.93;5.10;;;;;;;11.48;54.82;96920.06;5063806;28;20560;-69
2023/03/13 01:18:31;;;;;;;12.60;5.23;;;;;;;11.49;54.75;96921.69;5049749;28;20421;-68
2023/03/13 01:20:56;;;;;;;16.43;4.70;;;;;;;11.37;55.03;96920.38;5046945;28;20453;-69
2023/03/13 01:23:22;;;;;;;14.23;5.10;;;;;;;11.45;54.83;96915.16;5058020;28;20211;-69
2023/03/13 01:25:47;;;;;;;11.87;4.67;;;;;;;11.55;54.40;96898.41;5055552;28;20299;-69
2023/03/13 01:28:13;;;;;;;11.50;4.50;;;;;;;11.42;54.85;96905.00;5062211;28;20726;-70
2023/03/13 01:30:38;;;;;;;9.47;4.20;;;;;;;11.36;54.91;96905.63;5052359;28;20668;-69
2023/03/13 01:33:04;;;;;;;17.03;4.73;;;;;;;11.40;54.94;96891.22;5057273;28;20283;-69
2023/03/13 01:35:29;;;;;;;12.37;4.17;;;;;;;11.43;54.84;96896.13;5048249;28;20292;-71
2023/03/13 01:37:55;;;;;;;12.07;4.53;;;;;;;11.34;54.96;96891.88;5051596;28;20266;-69
2023/03/13 01:40:21;;;;;;;11.67;4.47;;;;;;;11.41;55.11;96884.97;5057816;28;20193;-69
2023/03/13 01:42:55;;;;;;;14.00;4.33;;;;;;;11.25;55.37;96877.09;5055292;28;20186;-69
2023/03/13 01:45:52;;;;;;;11.37;4.40;;;;;;;11.33;55.01;96871.88;5058282;28;20446;-70
2023/03/13 01:48:28;;;;;;;10.13;3.93;;;;;;;11.35;55.06;96865.47;5043798;28;20441;-69
2023/03/13 01:50:55;;;;;;;8.30;3.63;;;;;;;11.45;54.95;96867.94;5056596;28;20412;-70
2023/03/13 01:53:22;;;;;;;14.20;3.80;;;;;;;11.49;54.88;96863.97;5047374;28;20421;-70
2023/03/13 01:55:48;;;;;;;10.30;4.03;;;;;;;11.47;54.85;96847.56;5053862;28;20481;-70
2023/03/13 01:58:14;;;;;;;10.70;3.83;;;;;;;11.48;54.57;96841.34;5043839;28;20509;-69
2023/03/13 02:00:41;;;;;;;8.73;3.50;;;;;;;11.49;54.88;96839.53;5049231;28;20457;-70
2023/03/13 02:03:11;;;;;;;12.63;3.37;;;;;;;11.47;54.79;96834.44;5050148;28;20182;-70
2023/03/13 02:05:37;;;;;;;10.80;3.50;;;;;;;11.53;54.80;96825.91;5059043;28;21010;-68
2023/03/13 02:08:17;;;;;;;10.00;3.23;;;;;;;11.57;54.85;96828.22;5053312;28;20426;-69
2023/03/13 02:11:09;;;;;;;10.67;3.40;;;;;;;11.62;54.65;96826.72;5050470;28;20420;-69
2023/03/13 02:13:34;;;;;;;10.37;3.27;;;;;;;11.63;54.34;96824.91;5048427;28;20437;-70
2023/03/13 02:16:00;;;;;;;6.87;2.90;;;;;;;11.66;54.38;96821.94;5053359;28;20540;-70
2023/03/13 02:18:25;;;;;;;10.30;3.37;;;;;;;11.68;54.37;96819.97;5052782;28;20225;-70
2023/03/13 02:20:52;;;;;;;8.57;2.90;;;;;;;11.69;54.29;96811.13;5048223;28;20968;-69
2023/03/13 02:23:21;;;;;;;12.00;3.67;;;;;;;11.68;54.56;96819.97;5057448;28;20174;-70
2023/03/13 02:25:53;;;;;;;9.37;3.97;;;;;;;11.66;54.95;96814.06;5053828;28;20481;-69
2023/03/13 02:28:22;;;;;;;9.50;4.00;;;;;;;11.52;55.33;96813.78;5057176;28;20445;-69
2023/03/13 02:30:50;;;;;;;10.30;3.17;;;;;;;11.53;55.42;96819.84;5047747;28;20433;-69
2023/03/13 02:33:17;;;;;;;11.07;3.30;;;;;;;11.65;55.13;96820.31;5050187;28;20802;-70
2023/03/13 02:35:43;;;;;;;8.43;2.77;;;;;;;11.70;55.07;96818.00;5047711;28;20534;-69
2023/03/13 02:38:13;;;;;;;6.53;1.87;;;;;;;11.67;54.63;96798.16;5044718;28;20502;-69
2023/03/13 02:40:42;;;;;;;4.90;1.97;;;;;;;11.72;54.72;96794.19;5055186;28;20457;-69
2023/03/13 02:43:18;;;;;;;19.13;1.93;;;;;;;11.75;54.84;96789.44;5047284;28;20426;-70
2023/03/13 02:46:06;;;;;;;5.27;1.80;;;;;;;11.74;54.70;96777.28;5042935;28;20444;-69
2023/03/13 02:48:38;;;;;;;6.47;1.57;;;;;;;11.81;54.49;96772.19;5056276;28;20942;-70
2023/03/13 02:51:10;;;;;;;8.30;2.57;;;;;;;11.83;54.63;96771.03;5048392;28;20485;-69
2023/03/13 02:53:36;;;;;;;4.13;1.60;;;;;;;11.86;54.75;96769.03;5038718;28;20432;-69
2023/03/13 02:56:02;;;;;;;6.10;1.43;;;;;;;11.95;54.41;96766.22;5039457;28;20524;-69
2023/03/13 02:58:35;;;;;;;5.27;2.03;;;;;;;12.00;54.58;96762.28;5052299;28;20492;-69
2023/03/13 03:01:06;;;;;;;6.37;1.87;;;;;;;12.03;54.32;96757.50;5032421;28;20302;-69
2023/03/13 03:03:31;;;;;;;7.80;2.10;;;;;;;12.06;54.86;96753.72;5020421;28;20511;-70
2023/03/13 03:05:57;;;;;;;8.27;1.50;;;;;;;11.98;54.82;96755.41;5035439;28;20533;-68
2023/03/13 03:08:22;;;;;;;6.43;1.87;;;;;;;12.10;54.65;96745.31;5044564;28;20269;-69
2023/03/13 03:10:48;;;;;;;8.70;1.70;;;;;;;12.10;55.00;96739.25;5035543;28;20265;-69
2023/03/13 03:13:13;;;;;;;8.07;2.00;;;;;;;12.14;54.77;96722.97;5043638;28;20686;-67
2023/03/13 03:15:39;;;;;;;4.23;1.50;;;;;;;12.17;55.16;96736.75;5031111;28;20797;-68
2023/03/13 03:18:04;;;;;;;4.63;1.50;;;;;;;12.21;55.29;96730.16;5032217;28;20211;-67
2023/03/13 03:20:30;;;;;;;4.73;1.73;;;;;;;12.29;55.47;96727.47;5045916;28;20207;-68
2023/03/13 03:22:55;;;;;;;6.27;1.50;;;;;;;12.33;55.47;96717.41;5040589;28;20623;-67
2023/03/13 03:25:20;;;;;;;5.20;1.97;;;;;;;12.39;56.04;96728.06;5038537;28;20199;-68
2023/03/13 03:27:46;;;;;;;3.70;1.50;;;;;;;12.38;55.63;96729.03;5036335;28;20258;-68
2023/03/13 03:30:11;;;;;;;3.67;1.43;;;;;;;12.43;55.67;96713.56;5046549;28;20227;-68
2023/03/13 03:32:37;;;;;;;6.47;1.63;;;;;;;12.47;55.72;96714.03;5034454;28;20175;-68
2023/03/13 03:35:02;;;;;;;5.90;1.40;;;;;;;12.50;55.94;96712.84;5043281;28;20171;-67
2023/03/13 03:37:28;;;;;;;2.83;1.80;;;;;;;12.46;56.66;96711.59;5040517;28;20767;-68
2023/03/13 03:39:53;;;;;;;4.10;1.80;;;;;;;12.50;56.54;96702.34;5043814;28;20185;-68
2023/03/13 03:42:19;;;;;;;5.07;1.40;;;;;;;12.49;56.66;96691.03;5042738;28;20289;-68
2023/03/13 03:44:44;;;;;;;12.00;1.40;;;;;;;12.46;56.63;96691.38;5045266;28;20182;-68
2023/03/13 03:47:09;;;;;;;10.53;3.20;;;;;;;12.53;56.60;96696.75;5048837;28;20207;-68
2023/03/13 03:49:35;;;;;;;8.67;1.60;;;;;;;12.51;56.61;96693.47;5043313;28;20189;-68
2023/03/13 03:52:00;;;;;;;2.50;1.50;;;;;;;12.59;56.79;96696.03;5048278;28;20293;-68
2023/03/13 03:54:26;;;;;;;3.87;1.20;;;;;;;12.60;56.60;96693.22;5052884;28;20178;-68
2023/03/13 03:56:51;;;;;;;4.10;1.40;;;;;;;12.46;57.37;96706.34;5051681;28;20199;-69
2023/03/13 03:59:17;;;;;;;2.53;1.20;;;;;;;12.58;57.23;96704.94;5054771;28;20181;-68
2023/03/13 04:01:43;;;;;;;5.10;1.20;;;;;;;12.53;58.00;96708.09;5043574;28;20207;-68
2023/03/13 04:04:08;;;;;;;1.77;1.10;;;;;;;12.59;58.98;96714.44;5058229;28;20179;-68
2023/03/13 04:06:34;;;;;;;2.10;0.90;;;;;;;12.72;59.57;96711.19;5053114;28;20888;-68
2023/03/13 04:08:59;;;;;;;1.63;0.90;;;;;;;12.82;60.23;96705.69;5046815;28;20262;-68
2023/03/13 04:11:25;;;;;;;2.43;1.10;;;;;;;13.00;59.76;96692.22;5043397;28;20713;-68
2023/03/13 04:13:50;;;;;;;2.70;0.93;;;;;;;12.97;60.92;96697.81;5027563;28;20184;-68
2023/03/13 04:16:16;;;;;;;3.57;1.00;;;;;;;13.13;60.92;96689.78;5043506;28;20289;-68
2023/03/13 04:18:41;;;;;;;3.40;1.00;;;;;;;13.35;60.38;96692.47;5039775;28;20179;-68
2023/03/13 04:21:06;;;;;;;1.33;0.80;;;;;;;13.19;61.24;96696.13;5051771;28;20290;-68
2023/03/13 04:23:32;;;;;;;3.70;0.83;;;;;;;13.37;60.63;96680.75;5040452;28;20247;-68
2023/03/13 04:25:57;;;;;;;2.40;0.87;;;;;;;13.51;60.77;96679.16;5048946;28;20209;-68
2023/03/13 04:28:23;;;;;;;3.00;0.90;;;;;;;13.69;60.19;96677.94;5049805;28;20270;-68
2023/03/13 04:30:48;;;;;;;2.90;0.90;;;;;;;13.66;60.18;96675.69;5047227;28;20674;-68
2023/03/13 04:33:14;;;;;;;3.70;0.90;;;;;;;13.70;60.22;96676.13;5037557;28;20184;-68
2023/03/13 04:35:39;;;;;;;2.20;1.00;;;;;;;13.59;60.58;96683.50;5035715;28;20279;-68
2023/03/13 04:38:04;;;;;;;3.50;1.00;;;;;;;13.71;60.29;96672.50;5049512;28;20252;-68
2023/03/13 04:40:30;;;;;;;2.20;0.97;;;;;;;13.69;60.67;96682.41;5058717;28;20259;-68
2023/03/13 04:42:55;;;;;;;4.83;0.80;;;;;;;13.72;60.61;96664.41;5049811;28;20267;-68
2023/03/13 04:45:21;;;;;;;1.47;1.00;;;;;;;13.84;60.32;96672.66;5057137;28;20313;-69
2023/03/13 04:47:46;;;;;;;2.30;0.90;;;;;;;13.90;60.21;96671.09;5041541;28;20187;-68
2023/03/13 04:50:12;;;;;;;2.73;1.10;;;;;;;13.91;60.26;96668.25;5056142;28;20214;-69
2023/03/13 04:52:37;;;;;;;3.10;0.90;;;;;;;13.94;60.07;96657.34;5046934;28;20179;-69
2023/03/13 04:55:03;;;;;;;3.07;1.00;;;;;;;13.93;60.08;96661.00;5048331;28;20201;-68
2023/03/13 04:57:29;;;;;;;0.90;0.70;;;;;;;13.86;60.45;96660.09;5046155;28;20615;-68
2023/03/13 04:59:54;;;;;;;5.63;1.00;;;;;;;13.83;60.50;96661.28;5047825;28;20237;-69
2023/03/13 05:02:19;;;;;;;1.87;0.90;;;;;;;13.76;60.55;96665.69;5047105;28;20770;-68
2023/03/13 05:04:45;;;;;;;1.30;0.90;;;;;;;13.89;59.89;96665.00;5042045;28;20239;-69
2023/03/13 05:07:10;;;;;;;2.93;0.87;;;;;;;13.90;60.23;96665.81;5045349;28;20272;-68
2023/03/13 05:09:36;;;;;;;2.77;1.17;;;;;;;13.81;60.63;96652.75;5046639;28;20274;-68
2023/03/13 05:12:01;;;;;;;3.80;0.83;;;;;;;13.88;60.80;96654.66;5050843;28;20258;-68
2023/03/13 05:14:27;;;;;;;2.83;0.90;;;;;;;13.86;60.38;96635.59;5052216;28;20711;-67
2023/03/13 05:16:52;;;;;;;3.10;1.00;;;;;;;13.88;60.41;96665.19;5047522;28;20821;-67
2023/03/13 05:19:17;;;;;;;1.30;0.80;;;;;;;13.84;60.52;96662.13;5053185;28;20292;-69
2023/03/13 05:21:43;;;;;;;1.67;1.00;;;;;;;13.76;60.99;96655.16;5046588;28;20206;-69
2023/03/13 05:24:08;;;;;;;1.27;0.70;;;;;;;13.84;60.78;96641.06;5041817;28;20193;-69
2023/03/13 05:26:34;;;;;;;1.17;0.70;;;;;;;13.93;60.26;96652.25;5047700;28;20700;-69
2023/03/13 05:28:59;;;;;;;2.70;1.20;;;;;;;13.94;60.40;96657.34;5057809;28;20217;-69
2023/03/13 05:31:25;;;;;;;2.50;0.90;;;;;;;13.89;60.55;96659.72;5048011;28;20195;-69
2023/03/13 05:33:50;;;;;;;1.80;1.20;;;;;;;13.93;60.31;96661.00;5042708;28;20206;-69
2023/03/13 05:36:15;;;;;;;1.40;0.90;;;;;;;14.03;59.91;96641.41;5048368;28;20207;-69
2023/03/13 05:38:41;;;;;;;1.80;1.03;;;;;;;14.05;60.19;96652.59;5048711;28;20266;-69
2023/03/13 05:41:06;;;;;;;2.00;0.87;;;;;;;14.03;60.00;96647.53;5045262;28;20293;-69
2023/03/13 05:43:32;;;;;;;1.40;0.80;;;;;;;14.03;60.00;96665.97;5048872;28;20269;-69
2023/03/13 05:45:57;;;;;;;1.10;0.73;;;;;;;14.07;59.80;96653.22;5038636;28;20278;-67
2023/03/13 05:48:23;;;;;;;2.03;0.60;;;;;;;14.08;59.70;96636.41;5037273;28;20725;-70
2023/03/13 05:50:48;;;;;;;1.57;0.60;;;;;;;13.97;60.30;96643.81;5035514;28;20182;-69
2023/03/13 05:53:13;;;;;;;1.40;0.70;;;;;;;14.08;60.14;96628.50;5032056;28;20274;-68
2023/03/13 05:55:39;;;;;;;1.47;0.70;;;;;;;14.25;59.50;96631.69;5037082;28;20344;-69
2023/03/13 05:58:04;;;;;;;1.13;0.60;;;;;;;14.19;59.88;96633.28;5048012;28;20664;-68
2023/03/13 06:00:30;;;;;;;2.00;0.70;;;;;;;14.18;59.93;96631.66;5036271;28;20226;-68
2023/03/13 06:02:55;;;;;;;1.87;0.97;;;;;;;14.13;60.09;96623.47;5041215;28;20299;-69
2023/03/13 06:05:21;;;;;;;1.30;0.80;;;;;;;14.23;59.41;96624.00;5035986;28;20287;-69
2023/03/13 06:07:49;;;;;;;1.83;0.80;;;;;;;14.20;59.58;96636.72;5043009;28;20186;-68
2023/03/13 06:10:14;;;;;;;1.47;0.80;;;;;;;14.34;59.19;96629.75;5038115;28;20709;-69
2023/03/13 06:12:40;;;;;;;1.77;0.60;;;;;;;14.39;59.10;96643.16;5030575;28;20445;-67
2023/03/13 06:15:06;;;;;;;0.97;0.77;;;;;;;14.40;58.99;96650.06;5043101;28;20195;-69
2023/03/13 06:17:31;;;;;;;2.30;0.90;;;;;;;14.25;59.30;96645.69;5045071;28;20214;-68
2023/03/13 06:19:57;;;;;;;3.00;1.63;;;;;;;14.39;59.01;96640.53;5042199;28;20423;-70
2023/03/13 06:22:22;;;;;;;2.30;1.00;;;;;;;14.37;59.16;96639.91;5042380;28;20297;-69
2023/03/13 06:24:48;;;;;;;1.67;0.70;;;;;;;14.48;59.01;96662.31;5031537;28;20250;-67
2023/03/13 06:27:14;;;;;;;0.90;0.70;;;;;;;14.17;60.03;96655.56;5046678;28;20202;-70
2023/03/13 06:29:40;;;;;;;1.93;0.70;;;;;;;14.42;59.37;96651.53;5036182;28;20434;-70
2023/03/13 06:32:05;;;;;;;0.90;0.60;;;;;;;14.47;59.54;96650.94;5036450;28;20926;-68
2023/03/13 06:34:31;;;;;;;1.97;0.70;;;;;;;14.45;59.49;96650.31;5033061;28;20262;-70
2023/03/13 06:36:57;;;;;;;1.47;0.60;;;;;;;14.46;59.12;96651.97;5031850;28;20337;-70
2023/03/13 06:39:23;;;;;;;0.90;0.60;;;;;;;14.68;58.99;96651.94;5032226;28;20214;-69
2023/03/13 06:41:48;;;;;;;1.63;0.70;;;;;;;14.71;58.89;96638.38;5047146;28;20496;-68
2023/03/13 06:44:14;;;;;;;0.83;0.50;;;;;;;14.62;59.05;96642.16;5029149;28;20188;-70
2023/03/13 06:46:39;;;;;;;1.93;0.80;;;;;;;14.64;59.02;96640.94;5045159;28;20290;-70
2023/03/13 06:49:05;;;;;;;1.27;0.80;;;;;;;14.71;58.93;96636.53;5036587;28;20224;-71
2023/03/13 06:51:30;;;;;;;1.23;0.87;;;;;;;14.86;58.52;96644.38;5045345;28;20283;-70
2023/03/13 06:53:56;;;;;;;2.30;0.60;;;;;;;14.68;58.94;96633.47;5029997;28;20183;-70
2023/03/13 06:56:21;;;;;;;1.40;0.80;;;;;;;14.72;59.20;96645.28;5030487;28;20214;-69
2023/03/13 06:58:48;;;;;;;1.07;0.60;;;;;;;14.67;59.27;96650.28;5028557;28;20704;-70
2023/03/13 07:01:14;;;;;;;1.90;0.60;;;;;;;14.81;58.69;96654.69;5037358;28;20254;-70
2023/03/13 07:03:40;;;;;;;1.53;0.90;;;;;;;14.82;58.90;96666.84;5036102;28;20437;-70
2023/03/13 07:06:07;;;;;;;2.13;0.60;;;;;;;14.79;59.08;96669.88;5032269;28;20478;-70
2023/03/13 07:08:33;;;;;;;1.10;0.50;;;;;;;14.84;59.00;96664.84;5035845;28;20700;-70
2023/03/13 07:11:01;;;;;;;1.63;0.70;;;;;;;14.87;59.02;96674.19;5034277;28;20459;-70
2023/03/13 07:13:26;;;;;;;1.10;0.60;;;;;;;14.91;59.08;96662.25;5032778;28;20430;-70
2023/03/13 07:15:52;;;;;;;1.67;0.70;;;;;;;14.87;59.41;96672.34;5027997;28;20507;-69
2023/03/13 07:18:18;;;;;;;2.50;0.97;;;;;;;14.86;59.41;96669.91;5037687;28;20187;-69
2023/03/13 07:20:44;;;;;;;1.00;0.67;;;;;;;14.93;59.14;96675.25;5040408;28;20223;-69
2023/03/13 07:23:09;;;;;;;1.47;0.70;;;;;;;14.92;59.30;96673.59;5031819;28;20517;-71
2023/03/13 07:25:34;;;;;;;1.07;0.60;;;;;;;14.83;59.74;96665.03;5037070;28;20341;-69
2023/03/13 07:28:00;;;;;;;6.90;1.00;;;;;;;14.81;59.85;96665.22;5042692;28;20284;-69
2023/03/13 07:30:26;;;;;;;1.27;0.70;;;;;;;14.83;59.80;96665.84;5038457;28;20199;-70
2023/03/13 07:32:52;;;;;;;2.00;0.93;;;;;;;14.86;59.87;96654.09;5041144;28;20183;-71
2023/03/13 07:35:17;;;;;;;0.90;0.60;;;;;;;15.00;59.61;96654.97;5035052;28;20848;-69
2023/03/13 07:37:43;;;;;;;2.20;0.80;;;;;;;15.03;59.54;96644.03;5033954;28;20179;-70
2023/03/13 07:40:09;;;;;;;1.20;0.80;;;;;;;14.88;59.99;96636.25;5034564;28;20207;-70
2023/03/13 07:42:34;;;;;;;2.83;1.43;;;;;;;14.96;59.79;96638.72;5031648;28;20203;-71
2023/03/13 07:45:00;;;;;;;2.90;0.90;;;;;;;14.95;59.93;96638.94;5035965;28;20437;-69
2023/03/13 07:47:25;;;;;;;2.77;0.80;;;;;;;15.06;59.97;96641.03;5043154;28;20288;-70
2023/03/13 07:49:52;;;;;;;1.30;0.80;;;;;;;14.93;59.70;96636.50;5035336;28;20278;-70
2023/03/13 07:52:18;;;;;;;0.90;0.70;;;;;;;14.89;59.86;96625.50;5039620;28;20183;-69
2023/03/13 07:54:43;;;;;;;3.43;1.00;;;;;;;14.90;59.95;96624.50;5037625;28;20494;-69
2023/03/13 07:57:08;;;;;;;1.93;0.80;;;;;;;15.07;59.30;96626.00;5053683;28;20579;-69
2023/03/13 07:59:34;;;;;;;1.23;0.80;;;;;;;15.08;59.39;96617.91;5045406;28;20262;-69
2023/03/13 08:02:00;;;;;;;1.00;0.80;;;;;;;15.11;59.43;96620.16;5044966;28;20238;-70
2023/03/13 08:04:25;;;;;;;1.23;0.73;;;;;;;15.18;59.30;96618.34;5057255;28;20191;-69
2023/03/13 08:06:53;;;;;;;1.37;0.70;;;;;;;15.20;59.14;96607.59;5047598;28;20596;-70
2023/03/13 08:09:19;;;;;;;1.20;0.60;;;;;;;15.41;58.77;96603.22;5043196;28;20284;-70
2023/03/13 08:11:44;;;;;;;1.67;0.80;;;;;;;15.47;58.59;96600.59;5052044;28;20445;-70
2023/03/13 08:14:10;;;;;;;1.63;0.80;;;;;;;15.39;58.48;96584.91;5048606;28;20894;-69
2023/03/13 08:16:35;;;;;;;1.63;0.80;;;;;;;15.59;58.29;96568.34;5039176;28;20287;-69
2023/03/13 08:19:03;;;;;;;3.07;1.10;;;;;;;15.44;58.40;96555.28;5038181;28;20581;-69
2023/03/13 08:21:31;;;;;;;2.90;0.90;;;;;;;15.60;58.20;96556.75;5038277;28;20207;-69
2023/03/13 08:24:04;;;;;;;1.00;0.80;;;;;;;15.76;57.75;96564.28;5039312;28;20433;-70
2023/03/13 08:26:30;;;;;;;5.50;1.10;;;;;;;15.83;57.52;96564.31;5036428;28;20454;-70
2023/03/13 08:28:58;;;;;;;2.10;1.10;;;;;;;15.85;57.21;96572.06;5040729;28;20482;-69
2023/03/13 08:31:29;;;;;;;0.97;0.73;;;;;;;16.01;57.07;96566.38;5039185;28;20188;-70
2023/03/13 08:33:54;;;;;;;1.93;1.00;;;;;;;15.97;57.27;96573.09;5037107;28;20422;-69
2023/03/13 08:36:28;;;;;;;1.00;0.80;;;;;;;16.22;56.66;96591.00;5042544;28;20447;-70
2023/03/13 08:38:54;;;;;;;1.33;0.87;;;;;;;16.01;56.73;96592.81;5036230;28;20186;-69
2023/03/13 08:41:22;;;;;;;1.60;1.10;;;;;;;16.14;56.29;96576.16;5035619;28;20472;-69
2023/03/13 08:43:51;;;;;;;1.00;0.90;;;;;;;16.24;56.09;96587.13;5040988;28;21099;-69
2023/03/13 08:46:16;;;;;;;1.30;1.20;;;;;;;16.33;55.70;96579.81;5050152;28;20448;-70
2023/03/13 08:48:41;;;;;;;1.87;1.10;;;;;;;16.17;55.63;96586.34;5040273;28;20423;-71
2023/03/13 08:51:09;;;;;;;1.30;1.00;;;;;;;16.31;55.60;96592.41;5034782;28;20269;-70
2023/03/13 08:53:36;;;;;;;1.33;1.00;;;;;;;16.50;55.11;96597.91;5033724;28;20187;-71
2023/03/13 08:56:03;;;;;;;2.07;0.80;;;;;;;16.22;55.48;96599.75;5038669;28;20451;-69
2023/03/13 08:58:28;;;;;;;2.70;1.00;;;;;;;16.24;55.52;96602.19;5038945;28;20433;-69
2023/03/13 09:01:00;;;;;;;2.90;1.07;;;;;;;16.47;55.03;96600.97;5032226;28;20462;-70
2023/03/13 09:03:25;;;;;;;4.00;1.13;;;;;;;16.55;54.79;96590.16;5045649;28;20605;-69
2023/03/13 09:05:51;;;;;;;2.20;1.20;;;;;;;16.36;54.83;96592.63;5050710;28;20442;-69
2023/03/13 09:08:16;;;;;;;1.67;1.00;;;;;;;16.52;54.61;96596.69;5050365;28;20709;-71
2023/03/13 09:10:42;;;;;;;3.70;1.23;;;;;;;16.67;54.46;96591.16;5058337;28;20348;-70
2023/03/13 09:13:07;;;;;;;2.80;0.90;;;;;;;16.43;54.70;96596.09;5054093;28;20621;-70
2023/03/13 09:15:33;;;;;;;1.70;0.93;;;;;;;16.25;54.58;96609.13;5050825;28;20421;-70
2023/03/13 09:17:58;;;;;;;1.20;1.10;;;;;;;16.47;54.56;96593.03;5049538;28;20182;-70
2023/03/13 09:20:24;;;;;;;1.00;0.90;;;;;;;16.47;54.45;96587.75;5059469;28;20233;-70
2023/03/13 09:22:50;;;;;;;3.77;1.00;;;;;;;16.47;54.22;96595.69;5050600;28;20867;-72
2023/03/13 09:25:15;;;;;;;1.10;0.90;;;;;;;16.49;54.63;96585.72;5044000;28;20355;-70
2023/03/13 09:27:41;;;;;;;2.90;1.30;;;;;;;16.72;54.09;96583.44;5035230;28;20421;-71
2023/03/13 09:30:07;;;;;;;4.67;1.10;;;;;;;16.93;53.71;96578.91;5044480;28;20184;-71
2023/03/13 09:32:33;;;;;;;1.10;0.80;;;;;;;16.77;53.56;96589.94;5041478;28;20179;-71
2023/03/13 09:34:58;;;;;;;3.77;1.77;;;;;;;17.01;53.41;96591.94;5041523;28;20793;-71
2023/03/13 09:37:24;;;;;;;1.87;0.83;;;;;;;17.22;52.99;96590.03;5040997;28;20226;-69
2023/03/13 09:39:50;;;;;;;3.10;1.03;;;;;;;17.28;52.67;96591.03;5039720;28;20179;-71
2023/03/13 09:42:16;;;;;;;2.70;0.90;;;;;;;17.32;52.35;96598.34;5044571;28;20450;-69
2023/03/13 09:44:49;;;;;;;4.93;1.20;;;;;;;17.52;52.02;96596.63;5043256;28;20682;-68
2023/03/13 09:47:57;;;;;;;1.77;1.40;;;;;;;17.94;51.78;96600.47;5037966;28;20990;-69
2023/03/13 09:50:26;;;;;;;6.13;1.10;;;;;;;18.12;50.27;96585.72;5033588;28;20525;-69
2023/03/13 09:52:55;;;;;;;2.07;1.30;;;;;;;18.43;49.75;96602.56;5047484;28;20444;-70
2023/03/13 09:55:29;;;;;;;2.27;1.00;;;;;;;18.33;49.24;96581.03;5035605;28;20438;-69
2023/03/13 09:58:00;;;;;;;2.17;1.30;;;;;;;18.47;48.89;96587.03;5035215;28;20476;-68
2023/03/13 10:00:36;;;;;;;2.60;1.07;;;;;;;18.67;48.49;96569.09;5040723;28;20414;-70
2023/03/13 10:03:08;;;;;;;3.53;1.20;;;;;;;18.86;47.59;96580.56;5051514;28;20434;-70
2023/03/13 10:05:33;;;;;;;4.07;1.10;;;;;;;19.33;46.76;96579.22;5045748;28;20533;-70
2023/03/13 10:08:14;;;;;;;1.13;1.00;;;;;;;19.66;46.04;96567.34;5039708;28;20454;-69
2023/03/13 10:10:45;;;;;;;1.40;1.30;;;;;;;20.09;44.63;96576.97;5049342;28;20217;-70
2023/03/13 10:13:47;;;;;;;4.10;1.30;;;;;;;20.65;43.95;96565.22;5051745;28;20422;-69
2023/03/13 10:16:40;;;;;;;2.03;0.90;;;;;;;21.23;42.35;96549.41;5020177;28;20458;-69
2023/03/13 10:19:13;;;;;;;2.50;1.33;;;;;;;21.06;41.85;96551.97;5043919;28;20436;-69
2023/03/13 10:21:39;;;;;;;5.70;1.20;;;;;;;21.50;41.19;96541.66;5040195;28;20473;-71
2023/03/13 10:24:15;;;;;;;2.80;1.13;;;;;;;21.62;40.75;96533.59;5037329;28;20432;-70
2023/03/13 10:26:41;;;;;;;1.67;1.20;;;;;;;21.53;40.15;96546.50;5048947;28;20496;-69
2023/03/13 10:29:21;;;;;;;1.60;1.10;;;;;;;21.67;40.87;96530.25;5040637;28;20810;-70
2023/03/13 10:31:55;;;;;;;5.17;1.13;;;;;;;22.16;39.64;96530.53;5040648;28;20188;-70
2023/03/13 10:34:21;;;;;;;5.70;1.30;;;;;;;21.91;39.67;96537.06;5042795;28;20424;-70
2023/03/13 10:36:48;;;;;;;5.53;1.20;;;;;;;21.41;40.16;96532.44;5045904;28;20437;-70
2023/03/13 10:39:18;;;;;;;2.13;1.13;;;;;;;21.46;40.31;96532.50;5037091;28;20180;-70
2023/03/13 10:41:44;;;;;;;3.60;1.00;;;;;;;21.26;40.76;96543.59;5041437;28;20568;-70
2023/03/13 10:44:21;;;;;;;2.80;1.30;;;;;;;21.39;40.49;96526.53;5043774;28;20855;-71
2023/03/13 10:46:48;;;;;;;10.13;1.50;;;;;;;21.47;40.55;96520.78;5037513;28;20565;-70
2023/03/13 10:49:21;;;;;;;2.90;1.40;;;;;;;21.37;40.73;96509.94;5047354;28;20422;-70
2023/03/13 10:52:08;;;;;;;1.67;1.10;;;;;;;21.41;40.54;96517.22;5038213;28;20468;-71
2023/03/13 10:54:36;;;;;;;4.30;1.50;;;;;;;21.08;41.22;96517.94;5046047;28;20421;-70
2023/03/13 10:57:16;;;;;;;3.00;1.10;;;;;;;20.78;41.99;96510.94;5038711;28;20441;-70
2023/03/13 10:59:44;;;;;;;2.33;1.43;;;;;;;20.80;41.67;96491.03;5034018;28;20429;-70
2023/03/13 11:02:32;;;;;;;5.13;1.30;;;;;;;20.51;42.31;96482.16;5041059;28;20536;-70
2023/03/13 11:04:58;;;;;;;2.10;1.20;;;;;;;20.70;41.92;96499.56;5043647;28;20456;-69
2023/03/13 11:07:34;;;;;;;2.43;1.57;;;;;;;20.93;41.60;96492.59;5041328;28;20448;-71
2023/03/13 11:10:12;;;;;;;6.63;1.33;;;;;;;20.79;41.94;96500.06;5033335;28;20418;-69
2023/03/13 11:12:43;;;;;;;1.83;1.20;;;;;;;20.98;41.27;96497.25;5035582;28;20475;-69
2023/03/13 11:15:14;;;;;;;4.13;1.40;;;;;;;20.96;41.66;96488.69;5039365;28;20422;-67
2023/03/13 11:17:40;;;;;;;1.40;1.30;;;;;;;21.16;41.82;96478.41;5040458;28;20502;-70
2023/03/13 11:20:24;;;;;;;3.00;1.20;;;;;;;21.22;41.31;96478.50;5038234;28;20427;-71
2023/03/13 11:22:55;;;;;;;2.50;1.27;;;;;;;20.87;41.48;96474.91;5041750;28;20691;-71
2023/03/13 11:25:31;;;;;;;6.70;1.20;;;;;;;20.78;42.20;96481.66;5033614;28;20487;-70
2023/03/13 11:28:05;;;;;;;7.13;1.80;;;;;;;20.91;41.41;96459.28;5048808;28;20832;-71
2023/03/13 11:30:40;;;;;;;3.30;1.53;;;;;;;21.02;41.36;96453.91;5039348;28;20491;-71
2023/03/13 11:33:31;;;;;;;3.43;1.30;;;;;;;21.03;41.07;96441.41;5043648;28;20972;-70